createdAt,value
2022-11-29T00:01:23.842Z,-1.31
2022-11-29T00:04:35.630Z,-1.34
2022-11-29T00:07:47.339Z,-1.38
2022-11-29T00:10:59.187Z,-1.39
2022-11-29T00:14:11.985Z,-1.44
2022-11-29T00:17:23.708Z,-1.49
2022-11-29T00:20:35.641Z,-1.55
2022-11-29T00:23:47.451Z,-1.55
2022-11-29T00:26:59.464Z,-1.55
2022-11-29T00:30:15.151Z,-1.59
2022-11-29T00:33:26.827Z,-1.64
2022-11-29T00:36:39.024Z,-1.65
2022-11-29T00:39:50.692Z,-1.70
2022-11-29T00:43:02.389Z,-1.66
2022-11-29T00:46:15.322Z,-1.67
2022-11-29T00:49:27.267Z,-1.65
2022-11-29T00:52:39.215Z,-1.67
2022-11-29T00:55:53.353Z,-1.64
2022-11-29T00:59:05.148Z,-1.67
2022-11-29T01:02:17.197Z,-1.62
2022-11-29T01:05:29.324Z,-1.64
2022-11-29T01:08:41.400Z,-1.63
2022-11-29T01:11:54.691Z,-1.53
2022-11-29T01:15:07.210Z,-1.63
2022-11-29T01:18:18.864Z,-1.67
2022-11-29T01:21:31.237Z,-1.73
2022-11-29T01:24:43.074Z,-1.76
2022-11-29T01:27:56.286Z,-1.79
2022-11-29T01:31:13.218Z,-1.77
2022-11-29T01:34:25.046Z,-1.74
2022-11-29T01:37:37.319Z,-1.80
2022-11-29T01:40:49.212Z,-1.75
2022-11-29T01:44:08.237Z,-1.76
2022-11-29T01:47:20.380Z,-1.84
2022-11-29T01:50:32.469Z,-1.78
2022-11-29T01:53:44.500Z,-1.84
2022-11-29T01:57:00.292Z,-1.90
2022-11-29T02:00:19.553Z,-2.00
2022-11-29T02:03:31.816Z,-1.95
2022-11-29T02:06:45.515Z,-2.03
2022-11-29T02:09:57.227Z,-1.96
2022-11-29T02:13:15.654Z,-2.01
2022-11-29T02:16:32.755Z,-2.04
2022-11-29T02:20:20.462Z,-1.94
2022-11-29T02:24:07.970Z,-2.00
2022-11-29T02:27:51.541Z,-2.01
2022-11-29T02:31:47.310Z,-1.97
2022-11-29T02:35:09.685Z,-2.06
2022-11-29T02:38:58.951Z,-2.22
2022-11-29T02:42:56.867Z,-2.27
2022-11-29T02:46:24.923Z,-2.17
2022-11-29T02:49:54.364Z,-2.07
2022-11-29T02:53:16.344Z,-1.92
2022-11-29T02:56:36.367Z,-1.85
2022-11-29T02:59:57.171Z,-1.84
2022-11-29T03:03:14.603Z,-1.96
2022-11-29T03:06:34.494Z,-2.01
2022-11-29T03:09:49.110Z,-1.89
2022-11-29T03:13:01.710Z,-1.85
2022-11-29T03:16:21.034Z,-1.74
2022-11-29T03:19:53.670Z,-1.72
2022-11-29T03:23:26.372Z,-1.67
2022-11-29T03:26:43.338Z,-1.73
2022-11-29T03:29:57.871Z,-1.67
2022-11-29T03:33:14.171Z,-1.64
2022-11-29T03:36:35.591Z,-1.63
2022-11-29T03:39:54.088Z,-1.71
2022-11-29T03:43:10.750Z,-1.69
2022-11-29T03:46:30.437Z,-1.67
2022-11-29T03:49:48.049Z,-1.61
2022-11-29T03:53:05.187Z,-1.62
2022-11-29T03:56:34.268Z,-1.50
2022-11-29T04:00:03.312Z,-1.50
2022-11-29T04:03:52.845Z,-1.50
2022-11-29T04:07:17.049Z,-1.56
2022-11-29T04:10:50.206Z,-1.51
2022-11-29T04:14:38.261Z,-1.55
2022-11-29T04:19:02.362Z,-1.56
2022-11-29T04:22:59.461Z,-1.48
2022-11-29T04:26:50.940Z,-1.57
2022-11-29T04:30:24.215Z,-1.62
2022-11-29T04:34:15.736Z,-1.68
2022-11-29T04:37:58.223Z,-1.69
2022-11-29T04:41:32.550Z,-1.61
2022-11-29T04:45:03.181Z,-1.61
2022-11-29T04:48:30.182Z,-1.59
2022-11-29T04:52:09.286Z,-1.62
2022-11-29T04:55:31.220Z,-1.78
2022-11-29T04:58:48.185Z,-1.73
2022-11-29T05:02:10.272Z,-1.66
2022-11-29T05:05:34.175Z,-1.71
2022-11-29T05:08:57.087Z,-1.79
2022-11-29T05:12:14.823Z,-1.81
2022-11-29T05:15:53.076Z,-1.81
2022-11-29T05:19:36.709Z,-1.92
2022-11-29T05:22:57.160Z,-1.90
2022-11-29T05:26:16.321Z,-1.90
2022-11-29T05:29:37.456Z,-1.95
2022-11-29T05:33:04.536Z,-1.86
2022-11-29T05:36:24.536Z,-1.83
2022-11-29T05:39:52.557Z,-1.81
2022-11-29T05:43:19.178Z,-1.78
2022-11-29T05:46:37.001Z,-1.87
2022-11-29T05:49:56.466Z,-1.89
2022-11-29T05:53:17.944Z,-1.93
2022-11-29T05:56:37.060Z,-1.82
2022-11-29T05:59:51.831Z,-1.79
2022-11-29T06:03:11.041Z,-1.80
2022-11-29T06:06:30.349Z,-1.81
2022-11-29T06:09:48.311Z,-1.82
2022-11-29T06:13:10.516Z,-1.69
2022-11-29T06:17:02.765Z,-1.66
2022-11-29T06:20:48.711Z,-1.72
2022-11-29T06:24:34.572Z,-1.68
2022-11-29T06:28:13.860Z,-1.77
2022-11-29T06:31:31.244Z,-1.74
2022-11-29T06:34:51.103Z,-1.76
2022-11-29T06:38:07.776Z,-1.67
2022-11-29T06:41:26.512Z,-1.63
2022-11-29T06:44:40.036Z,-1.71
2022-11-29T06:47:57.071Z,-1.60
2022-11-29T06:51:14.841Z,-1.59
2022-11-29T06:54:38.744Z,-1.57
2022-11-29T06:58:07.536Z,-1.51
2022-11-29T07:01:27.884Z,-1.48
2022-11-29T07:04:59.205Z,-1.46
2022-11-29T07:08:17.307Z,-1.39
2022-11-29T07:11:31.749Z,-1.46
2022-11-29T07:14:45.742Z,-1.44
2022-11-29T07:18:22.064Z,-1.43
2022-11-29T07:21:42.875Z,-1.30
2022-11-29T07:25:04.200Z,-1.26
2022-11-29T07:28:26.479Z,-1.22
2022-11-29T07:31:48.121Z,-1.27
2022-11-29T07:35:06.726Z,-1.36
2022-11-29T07:38:24.664Z,-1.32
2022-11-29T07:41:43.420Z,-1.35
2022-11-29T07:45:04.246Z,-1.20
2022-11-29T07:48:19.300Z,-1.16
2022-11-29T07:51:31.637Z,-1.15
2022-11-29T07:54:43.791Z,-1.11
2022-11-29T07:57:56.847Z,-1.05
2022-11-29T08:01:09.304Z,-1.06
2022-11-29T08:04:21.135Z,-1.07
2022-11-29T08:07:33.091Z,-0.97
2022-11-29T08:10:45.758Z,-0.97
2022-11-29T08:14:01.542Z,-0.92
2022-11-29T08:17:13.429Z,-0.86
2022-11-29T08:20:25.766Z,-0.91
2022-11-29T08:23:37.472Z,-1.02
2022-11-29T08:26:49.318Z,-0.95
2022-11-29T08:30:01.381Z,-0.95
2022-11-29T08:33:13.195Z,-0.98
2022-11-29T08:36:26.868Z,-0.86
2022-11-29T08:39:38.705Z,-0.89
2022-11-29T08:42:50.613Z,-0.80
2022-11-29T08:46:02.607Z,-0.81
2022-11-29T08:49:14.488Z,-0.83
2022-11-29T08:52:41.330Z,-0.87
2022-11-29T08:55:53.284Z,-0.78
2022-11-29T08:59:05.148Z,-0.79
2022-11-29T09:02:17.446Z,-0.66
2022-11-29T09:05:29.978Z,-0.80
2022-11-29T09:08:43.797Z,-0.89
2022-11-29T09:11:55.725Z,-0.90
2022-11-29T09:15:07.925Z,-0.83
2022-11-29T09:18:20.033Z,-0.68
2022-11-29T09:21:36.852Z,-0.63
2022-11-29T09:24:48.748Z,-0.74
2022-11-29T09:28:03.540Z,-0.60
2022-11-29T09:31:20.099Z,-0.62
2022-11-29T09:34:32.072Z,-0.69
2022-11-29T09:37:47.490Z,-0.62
2022-11-29T09:41:02.578Z,-0.72
2022-11-29T09:44:20.945Z,-0.70
2022-11-29T09:47:52.821Z,-0.72
2022-11-29T09:51:14.447Z,-0.70
2022-11-29T09:54:36.011Z,-0.65
2022-11-29T09:57:49.910Z,-0.64
2022-11-29T10:01:07.779Z,-0.60
2022-11-29T10:04:24.449Z,-0.59
2022-11-29T10:07:42.040Z,-0.55
2022-11-29T10:10:57.286Z,-0.64
2022-11-29T10:14:17.997Z,-0.62
2022-11-29T10:17:38.611Z,-0.58
2022-11-29T10:20:54.149Z,-0.56
2022-11-29T10:24:11.672Z,-0.53
2022-11-29T10:27:29.454Z,-0.44
2022-11-29T10:30:43.233Z,-0.51
2022-11-29T10:33:56.451Z,-0.55
2022-11-29T10:37:08.984Z,-0.50
2022-11-29T10:40:25.870Z,-0.39
2022-11-29T10:43:37.820Z,-0.37
2022-11-29T10:46:49.713Z,-0.29
2022-11-29T10:50:02.002Z,-0.31
2022-11-29T10:53:17.481Z,-0.37
2022-11-29T10:56:35.212Z,-0.22
2022-11-29T10:59:47.108Z,-0.32
2022-11-29T11:02:58.871Z,-0.36
2022-11-29T11:06:18.859Z,-0.29
2022-11-29T11:09:38.359Z,-0.20
2022-11-29T11:13:06.989Z,-0.19
2022-11-29T11:16:24.539Z,-0.20
2022-11-29T11:19:38.650Z,-0.31
2022-11-29T11:22:50.659Z,-0.24
2022-11-29T11:26:09.430Z,-0.21
2022-11-29T11:29:28.784Z,-0.29
2022-11-29T11:32:40.876Z,-0.39
2022-11-29T11:36:17.425Z,-0.37
2022-11-29T11:39:32.476Z,-0.44
2022-11-29T11:42:46.540Z,-0.27
2022-11-29T11:46:00.901Z,-0.42
2022-11-29T11:49:23.779Z,-0.30
2022-11-29T11:52:42.806Z,-0.27
2022-11-29T11:56:06.374Z,-0.27
2022-11-29T11:59:26.658Z,-0.35
2022-11-29T12:02:44.978Z,-0.31
2022-11-29T12:06:01.277Z,-0.32
2022-11-29T12:09:22.526Z,-0.22
2022-11-29T12:12:38.197Z,-0.15
2022-11-29T12:15:53.931Z,-0.15
2022-11-29T12:19:14.916Z,-0.17
2022-11-29T12:22:32.059Z,-0.21
2022-11-29T12:25:49.598Z,-0.23
2022-11-29T12:29:02.394Z,-0.41
2022-11-29T12:32:30.406Z,-0.50
2022-11-29T12:36:12.873Z,-0.40
2022-11-29T12:39:37.462Z,-0.37
2022-11-29T12:42:57.141Z,-0.44
2022-11-29T12:46:14.094Z,-0.51
2022-11-29T12:49:31.520Z,-0.52
2022-11-29T12:52:49.573Z,-0.64
2022-11-29T12:56:10.937Z,-0.58
2022-11-29T12:59:34.487Z,-0.56
2022-11-29T13:03:04.409Z,-0.57
2022-11-29T13:06:25.879Z,-0.57
2022-11-29T13:10:00.471Z,-0.58
2022-11-29T13:13:21.129Z,-0.51
2022-11-29T13:16:46.866Z,-0.53
2022-11-29T13:20:02.682Z,-0.50
2022-11-29T13:23:39.175Z,-0.54
2022-11-29T13:26:39.021Z,-0.51
2022-11-29T13:29:51.175Z,-0.43
2022-11-29T13:33:08.881Z,-0.58
2022-11-29T13:36:25.629Z,-0.51
2022-11-29T13:39:49.193Z,-0.45
2022-11-29T13:43:08.374Z,-0.37
2022-11-29T13:46:29.986Z,-0.42
2022-11-29T13:50:04.119Z,-0.45
2022-11-29T13:53:23.754Z,-0.50
2022-11-29T13:56:47.037Z,-0.44
2022-11-29T13:59:59.073Z,-0.43
2022-11-29T14:03:38.428Z,-0.43
2022-11-29T14:06:50.471Z,-0.43
2022-11-29T14:10:08.323Z,-0.53
2022-11-29T14:13:22.018Z,-0.49
2022-11-29T14:16:39.978Z,-0.53
2022-11-29T14:19:51.943Z,-0.52
2022-11-29T14:23:39.020Z,-0.51
2022-11-29T14:26:50.919Z,-0.54
2022-11-29T14:30:03.093Z,-0.41
2022-11-29T14:33:32.576Z,-0.40
2022-11-29T14:36:55.903Z,-0.36
2022-11-29T14:40:18.028Z,-0.33
2022-11-29T14:43:34.639Z,-0.37
2022-11-29T14:46:46.730Z,-0.44
2022-11-29T14:50:00.907Z,-0.51
2022-11-29T14:53:29.882Z,-0.45
2022-11-29T14:56:47.461Z,-0.51
2022-11-29T15:00:00.528Z,-0.40
2022-11-29T15:03:18.536Z,-0.38
2022-11-29T15:06:41.641Z,-0.38
2022-11-29T15:09:52.757Z,-0.33
2022-11-29T15:13:06.680Z,-0.27
2022-11-29T15:16:49.989Z,-0.25
2022-11-29T15:20:28.990Z,-0.25
2022-11-29T15:23:49.415Z,-0.18
2022-11-29T15:27:06.239Z,-0.22
2022-11-29T15:30:36.959Z,-0.25
2022-11-29T15:33:52.651Z,-0.29
2022-11-29T15:37:05.369Z,-0.21
2022-11-29T15:40:23.532Z,-0.14
2022-11-29T15:43:40.243Z,-0.12
2022-11-29T15:46:51.989Z,-0.10
2022-11-29T15:50:03.840Z,-0.09
2022-11-29T15:53:21.821Z,-0.01
2022-11-29T15:56:39.917Z,0.00
2022-11-29T15:59:56.008Z,0.02
2022-11-29T16:03:09.703Z,-0.01
2022-11-29T16:06:31.553Z,-0.03
2022-11-29T16:09:47.597Z,-0.01
2022-11-29T16:13:02.458Z,-0.06
2022-11-29T16:16:20.670Z,-0.05
2022-11-29T16:19:40.685Z,0.03
2022-11-29T16:22:54.812Z,-0.07
2022-11-29T16:26:14.822Z,-0.03
2022-11-29T16:29:33.078Z,-0.01
2022-11-29T16:32:48.966Z,0.04
2022-11-29T16:36:17.369Z,0.08
2022-11-29T16:39:31.226Z,0.11
2022-11-29T16:42:43.335Z,0.04
2022-11-29T16:46:03.143Z,0.14
2022-11-29T16:49:42.131Z,0.12
2022-11-29T16:52:56.739Z,0.16
2022-11-29T16:56:09.000Z,0.19
2022-11-29T16:59:27.140Z,0.15
2022-11-29T17:02:36.106Z,0.13
2022-11-29T17:05:48.137Z,0.14
2022-11-29T17:09:02.260Z,0.06
2022-11-29T17:12:17.622Z,0.15
2022-11-29T17:15:29.515Z,0.12
2022-11-29T17:18:42.092Z,0.12
2022-11-29T17:21:54.427Z,-0.04
2022-11-29T17:25:06.220Z,0.00
2022-11-29T17:28:17.931Z,0.04
2022-11-29T17:31:31.409Z,-0.01
2022-11-29T17:34:43.595Z,-0.03
2022-11-29T17:37:55.499Z,0.00
2022-11-29T17:41:14.027Z,0.04
2022-11-29T17:44:23.913Z,0.04
2022-11-29T17:47:35.657Z,0.03
2022-11-29T17:50:47.863Z,0.04
2022-11-29T17:54:01.007Z,0.00
2022-11-29T17:57:12.678Z,0.00
2022-11-29T18:00:27.027Z,0.07
2022-11-29T18:03:40.325Z,0.04
2022-11-29T18:06:53.578Z,0.01
2022-11-29T18:10:05.251Z,0.08
2022-11-29T18:13:16.933Z,0.03
2022-11-29T18:16:30.909Z,0.00
2022-11-29T18:19:43.180Z,0.00
2022-11-29T18:22:56.313Z,0.03
2022-11-29T18:26:11.099Z,0.01
2022-11-29T18:29:23.294Z,0.05
2022-11-29T18:32:36.188Z,0.03
2022-11-29T18:35:47.896Z,0.01
2022-11-29T18:39:05.184Z,0.03
2022-11-29T18:42:17.050Z,0.01
2022-11-29T18:45:28.981Z,0.02
2022-11-29T18:48:41.381Z,0.05
2022-11-29T18:51:54.896Z,0.00
2022-11-29T18:55:06.812Z,0.04
2022-11-29T18:58:18.590Z,0.06
2022-11-29T19:01:32.144Z,0.07
2022-11-29T19:04:44.339Z,0.04
2022-11-29T19:07:56.330Z,0.01
2022-11-29T19:11:11.928Z,0.02
2022-11-29T19:14:24.018Z,-0.08
2022-11-29T19:17:41.693Z,-0.05
2022-11-29T19:20:50.300Z,0.01
2022-11-29T19:24:05.526Z,0.02
2022-11-29T19:27:17.369Z,0.12
2022-11-29T19:30:30.074Z,0.18
2022-11-29T19:33:44.916Z,0.22
2022-11-29T19:36:56.612Z,0.23
2022-11-29T19:40:12.763Z,0.22
2022-11-29T19:43:24.514Z,0.16
2022-11-29T19:46:39.599Z,0.12
2022-11-29T19:49:51.675Z,0.14
2022-11-29T19:53:03.830Z,0.13
2022-11-29T19:56:20.501Z,0.11
2022-11-29T19:59:33.516Z,0.10
2022-11-29T20:02:45.358Z,0.11
2022-11-29T20:06:07.301Z,0.04
2022-11-29T20:09:20.005Z,0.11
2022-11-29T20:12:32.396Z,0.11
2022-11-29T20:15:44.313Z,-0.01
2022-11-29T20:18:57.824Z,0.04
2022-11-29T20:22:09.666Z,0.04
2022-11-29T20:25:21.608Z,0.11
2022-11-29T20:28:35.461Z,0.12
2022-11-29T20:31:51.047Z,0.12
2022-11-29T20:35:04.172Z,0.18
2022-11-29T20:38:25.909Z,0.16
2022-11-29T20:41:42.968Z,0.14
2022-11-29T20:44:56.761Z,0.14
2022-11-29T20:48:18.184Z,0.13
2022-11-29T20:51:37.552Z,0.16
2022-11-29T20:54:49.695Z,0.19
2022-11-29T20:58:02.238Z,0.21
2022-11-29T21:01:15.169Z,0.22
2022-11-29T21:04:28.275Z,0.22
2022-11-29T21:07:41.166Z,0.21
2022-11-29T21:10:53.669Z,0.19
2022-11-29T21:14:08.234Z,0.25
2022-11-29T21:17:21.759Z,0.22
2022-11-29T21:20:35.222Z,0.25
2022-11-29T21:24:04.541Z,0.16
2022-11-29T21:27:23.551Z,0.14
2022-11-29T21:30:36.639Z,0.10
2022-11-29T21:33:49.996Z,0.14
2022-11-29T21:37:05.525Z,0.13
2022-11-29T21:40:19.610Z,0.09
2022-11-29T21:44:04.516Z,0.04
2022-11-29T21:46:45.587Z,0.04
2022-11-29T21:49:57.626Z,0.07
2022-11-29T21:53:09.773Z,0.02
2022-11-29T21:56:21.739Z,0.09
2022-11-29T21:59:33.684Z,0.14
2022-11-29T22:02:45.537Z,0.08
2022-11-29T22:05:57.885Z,0.06
2022-11-29T22:09:10.708Z,0.05
2022-11-29T22:12:37.759Z,0.09
2022-11-29T22:15:37.639Z,0.12
2022-11-29T22:18:49.473Z,0.08
2022-11-29T22:22:03.996Z,0.11
2022-11-29T22:25:16.568Z,0.01
2022-11-29T22:28:28.389Z,0.07
2022-11-29T22:31:41.409Z,-0.03
2022-11-29T22:34:54.307Z,-0.07
2022-11-29T22:38:06.086Z,-0.05
2022-11-29T22:41:19.692Z,-0.05
2022-11-29T22:44:31.794Z,-0.04
2022-11-29T22:47:43.496Z,-0.11
2022-11-29T22:50:55.280Z,0.01
2022-11-29T22:54:09.303Z,-0.01
2022-11-29T22:57:21.172Z,-0.05
2022-11-29T23:00:34.824Z,-0.06
2022-11-29T23:03:48.542Z,-0.06
2022-11-29T23:07:00.464Z,-0.04
2022-11-29T23:10:14.941Z,-0.01
2022-11-29T23:13:26.920Z,0.03
2022-11-29T23:16:39.098Z,-0.01
2022-11-29T23:19:51.138Z,-0.01
2022-11-29T23:23:03.034Z,0.00
2022-11-29T23:26:23.087Z,-0.08
2022-11-29T23:29:35.025Z,-0.08
2022-11-29T23:32:46.825Z,-0.07
2022-11-29T23:36:04.988Z,-0.11
2022-11-29T23:39:16.891Z,-0.17
2022-11-29T23:42:28.664Z,-0.17
2022-11-29T23:45:42.207Z,-0.17
2022-11-29T23:48:54.297Z,-0.43
2022-11-29T23:52:06.090Z,-0.42
2022-11-29T23:55:19.957Z,-0.35
2022-11-29T23:58:32.633Z,-0.30
